sensor_id;sensor_type;location;lat;lon;timestamp;temperature;humidity
25192;DHT22;13143;50.924;5.320;2023-06-10T00:00:43;25.30;73.00
25192;DHT22;13143;50.924;5.320;2023-06-10T00:03:10;25.30;73.40
25192;DHT22;13143;50.924;5.320;2023-06-10T00:05:36;25.30;73.10
25192;DHT22;13143;50.924;5.320;2023-06-10T00:08:08;25.20;73.20
25192;DHT22;13143;50.924;5.320;2023-06-10T00:10:35;25.20;73.40
25192;DHT22;13143;50.924;5.320;2023-06-10T00:13:08;25.20;73.50
25192;DHT22;13143;50.924;5.320;2023-06-10T00:15:34;25.10;73.70
25192;DHT22;13143;50.924;5.320;2023-06-10T00:18:04;25.10;73.50
25192;DHT22;13143;50.924;5.320;2023-06-10T00:20:30;25.10;73.80
25192;DHT22;13143;50.924;5.320;2023-06-10T00:22:58;25.10;74.00
25192;DHT22;13143;50.924;5.320;2023-06-10T00:25:25;25.10;74.10
25192;DHT22;13143;50.924;5.320;2023-06-10T00:27:51;25.00;74.20
25192;DHT22;13143;50.924;5.320;2023-06-10T00:30:18;25.00;73.70
25192;DHT22;13143;50.924;5.320;2023-06-10T00:32:44;25.00;74.30
25192;DHT22;13143;50.924;5.320;2023-06-10T00:35:10;25.00;74.40
25192;DHT22;13143;50.924;5.320;2023-06-10T00:37:36;24.90;74.50
25192;DHT22;13143;50.924;5.320;2023-06-10T00:40:03;24.90;74.90
25192;DHT22;13143;50.924;5.320;2023-06-10T00:42:30;24.90;75.00
25192;DHT22;13143;50.924;5.320;2023-06-10T00:44:56;24.90;75.10
25192;DHT22;13143;50.924;5.320;2023-06-10T00:47:22;24.80;75.10
25192;DHT22;13143;50.924;5.320;2023-06-10T00:49:49;24.80;75.10
25192;DHT22;13143;50.924;5.320;2023-06-10T00:52:16;24.80;75.30
25192;DHT22;13143;50.924;5.320;2023-06-10T00:54:44;24.80;75.10
25192;DHT22;13143;50.924;5.320;2023-06-10T00:57:12;24.70;75.40
25192;DHT22;13143;50.924;5.320;2023-06-10T00:59:40;24.80;75.50
25192;DHT22;13143;50.924;5.320;2023-06-10T01:02:07;24.70;75.50
25192;DHT22;13143;50.924;5.320;2023-06-10T01:04:33;24.60;75.60
25192;DHT22;13143;50.924;5.320;2023-06-10T01:10:15;24.60;75.90
25192;DHT22;13143;50.924;5.320;2023-06-10T01:12:55;24.60;76.10
25192;DHT22;13143;50.924;5.320;2023-06-10T01:15:25;24.60;76.20
25192;DHT22;13143;50.924;5.320;2023-06-10T01:18:05;24.60;76.30
25192;DHT22;13143;50.924;5.320;2023-06-10T01:20:36;24.50;76.30
25192;DHT22;13143;50.924;5.320;2023-06-10T01:23:06;24.50;76.40
25192;DHT22;13143;50.924;5.320;2023-06-10T01:25:33;24.50;76.40
25192;DHT22;13143;50.924;5.320;2023-06-10T01:28:57;24.40;76.60
25192;DHT22;13143;50.924;5.320;2023-06-10T01:31:17;24.40;76.70
25192;DHT22;13143;50.924;5.320;2023-06-10T01:33:47;24.40;76.80
25192;DHT22;13143;50.924;5.320;2023-06-10T01:36:16;24.40;77.00
25192;DHT22;13143;50.924;5.320;2023-06-10T01:38:44;24.40;77.20
25192;DHT22;13143;50.924;5.320;2023-06-10T01:41:14;24.40;77.20
25192;DHT22;13143;50.924;5.320;2023-06-10T01:43:43;24.30;77.30
25192;DHT22;13143;50.924;5.320;2023-06-10T01:46:10;24.40;77.40
25192;DHT22;13143;50.924;5.320;2023-06-10T01:48:38;24.30;77.50
25192;DHT22;13143;50.924;5.320;2023-06-10T01:51:04;24.20;77.80
25192;DHT22;13143;50.924;5.320;2023-06-10T01:53:31;24.20;77.80
25192;DHT22;13143;50.924;5.320;2023-06-10T01:55:57;24.20;78.00
25192;DHT22;13143;50.924;5.320;2023-06-10T01:58:23;24.20;78.10
25192;DHT22;13143;50.924;5.320;2023-06-10T02:00:49;24.20;78.20
25192;DHT22;13143;50.924;5.320;2023-06-10T02:03:15;24.20;78.40
25192;DHT22;13143;50.924;5.320;2023-06-10T02:05:41;24.20;78.50
25192;DHT22;13143;50.924;5.320;2023-06-10T02:08:07;24.20;78.60
25192;DHT22;13143;50.924;5.320;2023-06-10T02:10:34;24.10;78.60
25192;DHT22;13143;50.924;5.320;2023-06-10T02:13:00;24.10;78.80
25192;DHT22;13143;50.924;5.320;2023-06-10T02:15:26;24.10;78.80
25192;DHT22;13143;50.924;5.320;2023-06-10T02:17:52;24.10;79.00
25192;DHT22;13143;50.924;5.320;2023-06-10T02:20:18;24.10;79.10
25192;DHT22;13143;50.924;5.320;2023-06-10T02:22:45;24.00;79.00
25192;DHT22;13143;50.924;5.320;2023-06-10T02:25:11;24.00;79.00
25192;DHT22;13143;50.924;5.320;2023-06-10T02:27:37;24.00;79.20
25192;DHT22;13143;50.924;5.320;2023-06-10T02:30:03;24.00;79.50
25192;DHT22;13143;50.924;5.320;2023-06-10T02:32:29;24.00;79.60
25192;DHT22;13143;50.924;5.320;2023-06-10T02:34:55;23.90;79.70
25192;DHT22;13143;50.924;5.320;2023-06-10T02:37:22;23.90;79.90
25192;DHT22;13143;50.924;5.320;2023-06-10T02:39:48;23.90;80.00
25192;DHT22;13143;50.924;5.320;2023-06-10T02:42:14;23.90;80.00
25192;DHT22;13143;50.924;5.320;2023-06-10T02:44:40;23.90;80.20
25192;DHT22;13143;50.924;5.320;2023-06-10T02:47:06;23.80;80.10
25192;DHT22;13143;50.924;5.320;2023-06-10T02:49:32;23.80;80.20
25192;DHT22;13143;50.924;5.320;2023-06-10T02:51:59;23.80;80.40
25192;DHT22;13143;50.924;5.320;2023-06-10T02:54:25;23.80;80.50
25192;DHT22;13143;50.924;5.320;2023-06-10T02:56:52;23.80;80.50
25192;DHT22;13143;50.924;5.320;2023-06-10T02:59:18;23.80;80.60
25192;DHT22;13143;50.924;5.320;2023-06-10T03:01:46;23.70;80.70
25192;DHT22;13143;50.924;5.320;2023-06-10T03:04:12;23.70;80.80
25192;DHT22;13143;50.924;5.320;2023-06-10T03:06:40;23.70;80.90
25192;DHT22;13143;50.924;5.320;2023-06-10T03:09:07;23.70;81.00
25192;DHT22;13143;50.924;5.320;2023-06-10T03:11:33;23.70;81.00
25192;DHT22;13143;50.924;5.320;2023-06-10T03:13:59;23.70;81.10
25192;DHT22;13143;50.924;5.320;2023-06-10T03:16:25;23.70;81.10
25192;DHT22;13143;50.924;5.320;2023-06-10T03:18:53;23.60;81.20
25192;DHT22;13143;50.924;5.320;2023-06-10T03:21:20;23.60;81.30
25192;DHT22;13143;50.924;5.320;2023-06-10T03:23:46;23.60;81.50
25192;DHT22;13143;50.924;5.320;2023-06-10T03:26:12;23.60;81.50
25192;DHT22;13143;50.924;5.320;2023-06-10T03:28:40;23.60;81.60
25192;DHT22;13143;50.924;5.320;2023-06-10T03:31:06;23.60;81.70
25192;DHT22;13143;50.924;5.320;2023-06-10T03:33:33;23.50;81.70
25192;DHT22;13143;50.924;5.320;2023-06-10T03:35:59;23.50;81.90
25192;DHT22;13143;50.924;5.320;2023-06-10T03:38:25;23.40;81.90
25192;DHT22;13143;50.924;5.320;2023-06-10T03:40:51;23.50;82.10
25192;DHT22;13143;50.924;5.320;2023-06-10T03:43:17;23.40;82.20
25192;DHT22;13143;50.924;5.320;2023-06-10T03:45:44;23.40;82.20
25192;DHT22;13143;50.924;5.320;2023-06-10T03:48:10;23.40;82.40
25192;DHT22;13143;50.924;5.320;2023-06-10T03:50:37;23.40;82.60
25192;DHT22;13143;50.924;5.320;2023-06-10T03:53:03;23.40;82.70
25192;DHT22;13143;50.924;5.320;2023-06-10T03:55:29;23.30;82.80
25192;DHT22;13143;50.924;5.320;2023-06-10T03:57:55;23.30;82.80
25192;DHT22;13143;50.924;5.320;2023-06-10T04:00:22;23.30;83.10
25192;DHT22;13143;50.924;5.320;2023-06-10T04:02:48;23.20;83.20
25192;DHT22;13143;50.924;5.320;2023-06-10T04:05:16;23.20;83.30
25192;DHT22;13143;50.924;5.320;2023-06-10T04:07:43;23.20;83.50
25192;DHT22;13143;50.924;5.320;2023-06-10T04:10:10;23.10;83.60
25192;DHT22;13143;50.924;5.320;2023-06-10T04:12:37;23.10;83.60
25192;DHT22;13143;50.924;5.320;2023-06-10T04:15:04;23.10;83.90
25192;DHT22;13143;50.924;5.320;2023-06-10T04:17:30;23.10;84.10
25192;DHT22;13143;50.924;5.320;2023-06-10T04:19:57;23.10;84.10
25192;DHT22;13143;50.924;5.320;2023-06-10T04:22:24;23.10;84.30
25192;DHT22;13143;50.924;5.320;2023-06-10T04:24:50;23.00;84.50
25192;DHT22;13143;50.924;5.320;2023-06-10T04:27:16;23.00;84.80
25192;DHT22;13143;50.924;5.320;2023-06-10T04:29:42;23.00;84.80
25192;DHT22;13143;50.924;5.320;2023-06-10T04:32:08;23.00;85.00
25192;DHT22;13143;50.924;5.320;2023-06-10T04:34:35;22.90;85.10
25192;DHT22;13143;50.924;5.320;2023-06-10T04:37:01;22.90;85.30
25192;DHT22;13143;50.924;5.320;2023-06-10T04:39:27;22.90;85.40
25192;DHT22;13143;50.924;5.320;2023-06-10T04:41:53;22.90;85.60
25192;DHT22;13143;50.924;5.320;2023-06-10T04:44:19;22.90;85.90
25192;DHT22;13143;50.924;5.320;2023-06-10T04:46:46;22.80;86.10
25192;DHT22;13143;50.924;5.320;2023-06-10T04:49:12;22.80;86.20
25192;DHT22;13143;50.924;5.320;2023-06-10T04:51:40;22.80;86.30
25192;DHT22;13143;50.924;5.320;2023-06-10T04:54:06;22.70;86.50
25192;DHT22;13143;50.924;5.320;2023-06-10T04:56:33;22.70;86.70
25192;DHT22;13143;50.924;5.320;2023-06-10T04:58:59;22.70;86.70
25192;DHT22;13143;50.924;5.320;2023-06-10T05:01:26;22.70;86.90
25192;DHT22;13143;50.924;5.320;2023-06-10T05:03:53;22.70;87.00
25192;DHT22;13143;50.924;5.320;2023-06-10T05:06:19;22.70;86.90
25192;DHT22;13143;50.924;5.320;2023-06-10T05:08:45;22.70;87.00
25192;DHT22;13143;50.924;5.320;2023-06-10T05:11:11;22.60;86.90
25192;DHT22;13143;50.924;5.320;2023-06-10T05:13:38;22.70;87.30
25192;DHT22;13143;50.924;5.320;2023-06-10T05:16:05;22.60;87.30
25192;DHT22;13143;50.924;5.320;2023-06-10T05:18:33;22.70;87.60
25192;DHT22;13143;50.924;5.320;2023-06-10T05:20:59;22.70;87.60
25192;DHT22;13143;50.924;5.320;2023-06-10T05:23:25;22.70;87.70
25192;DHT22;13143;50.924;5.320;2023-06-10T05:25:51;22.70;87.90
25192;DHT22;13143;50.924;5.320;2023-06-10T05:28:17;22.70;89.00
25192;DHT22;13143;50.924;5.320;2023-06-10T05:30:44;22.70;88.50
25192;DHT22;13143;50.924;5.320;2023-06-10T05:33:10;22.70;88.50
25192;DHT22;13143;50.924;5.320;2023-06-10T05:35:36;22.70;88.30
25192;DHT22;13143;50.924;5.320;2023-06-10T05:38:03;22.70;88.50
25192;DHT22;13143;50.924;5.320;2023-06-10T05:40:29;22.70;88.50
25192;DHT22;13143;50.924;5.320;2023-06-10T05:42:55;22.70;88.60
25192;DHT22;13143;50.924;5.320;2023-06-10T05:45:21;22.70;88.80
25192;DHT22;13143;50.924;5.320;2023-06-10T05:47:47;22.70;88.90
25192;DHT22;13143;50.924;5.320;2023-06-10T05:50:13;22.70;88.90
25192;DHT22;13143;50.924;5.320;2023-06-10T05:52:39;22.70;89.20
25192;DHT22;13143;50.924;5.320;2023-06-10T05:55:09;22.70;89.40
25192;DHT22;13143;50.924;5.320;2023-06-10T05:57:35;22.70;89.80
25192;DHT22;13143;50.924;5.320;2023-06-10T06:00:01;22.70;89.80
25192;DHT22;13143;50.924;5.320;2023-06-10T06:02:27;22.80;89.90
25192;DHT22;13143;50.924;5.320;2023-06-10T06:04:53;22.80;89.70
25192;DHT22;13143;50.924;5.320;2023-06-10T06:07:19;22.80;89.80
25192;DHT22;13143;50.924;5.320;2023-06-10T06:09:47;22.80;89.60
25192;DHT22;13143;50.924;5.320;2023-06-10T06:12:13;22.90;89.90
25192;DHT22;13143;50.924;5.320;2023-06-10T06:14:39;22.90;89.90
25192;DHT22;13143;50.924;5.320;2023-06-10T06:17:06;22.90;90.00
25192;DHT22;13143;50.924;5.320;2023-06-10T06:19:32;22.90;90.00
25192;DHT22;13143;50.924;5.320;2023-06-10T06:21:59;22.90;90.00
25192;DHT22;13143;50.924;5.320;2023-06-10T06:24:25;22.90;89.90
25192;DHT22;13143;50.924;5.320;2023-06-10T06:26:51;23.00;90.00
25192;DHT22;13143;50.924;5.320;2023-06-10T06:29:17;23.00;89.70
25192;DHT22;13143;50.924;5.320;2023-06-10T06:31:44;23.00;89.40
25192;DHT22;13143;50.924;5.320;2023-06-10T06:34:10;23.10;89.20
25192;DHT22;13143;50.924;5.320;2023-06-10T06:36:36;23.10;89.10
25192;DHT22;13143;50.924;5.320;2023-06-10T06:39:02;23.10;89.00
25192;DHT22;13143;50.924;5.320;2023-06-10T06:41:29;23.10;88.80
25192;DHT22;13143;50.924;5.320;2023-06-10T06:43:55;23.10;89.00
25192;DHT22;13143;50.924;5.320;2023-06-10T06:46:21;23.10;88.50
25192;DHT22;13143;50.924;5.320;2023-06-10T06:48:48;23.20;88.70
25192;DHT22;13143;50.924;5.320;2023-06-10T06:51:14;23.20;88.60
25192;DHT22;13143;50.924;5.320;2023-06-10T06:53:41;23.20;88.70
25192;DHT22;13143;50.924;5.320;2023-06-10T06:56:13;23.30;88.10
25192;DHT22;13143;50.924;5.320;2023-06-10T06:58:39;23.30;88.00
25192;DHT22;13143;50.924;5.320;2023-06-10T07:01:05;23.30;87.90
25192;DHT22;13143;50.924;5.320;2023-06-10T07:03:31;23.40;87.90
25192;DHT22;13143;50.924;5.320;2023-06-10T07:05:58;23.30;87.50
25192;DHT22;13143;50.924;5.320;2023-06-10T07:08:24;23.40;87.30
25192;DHT22;13143;50.924;5.320;2023-06-10T07:10:50;23.40;87.20
25192;DHT22;13143;50.924;5.320;2023-06-10T07:13:16;23.50;87.10
25192;DHT22;13143;50.924;5.320;2023-06-10T07:15:42;23.50;87.10
25192;DHT22;13143;50.924;5.320;2023-06-10T07:18:08;23.50;86.80
25192;DHT22;13143;50.924;5.320;2023-06-10T07:20:35;23.50;86.70
25192;DHT22;13143;50.924;5.320;2023-06-10T07:23:01;23.50;86.60
25192;DHT22;13143;50.924;5.320;2023-06-10T07:25:27;23.60;86.70
25192;DHT22;13143;50.924;5.320;2023-06-10T07:27:53;23.60;86.80
25192;DHT22;13143;50.924;5.320;2023-06-10T07:30:19;23.60;86.80
25192;DHT22;13143;50.924;5.320;2023-06-10T07:32:46;23.70;87.00
25192;DHT22;13143;50.924;5.320;2023-06-10T07:35:12;23.80;87.10
25192;DHT22;13143;50.924;5.320;2023-06-10T07:37:38;23.80;87.10
25192;DHT22;13143;50.924;5.320;2023-06-10T07:40:05;23.80;87.00
25192;DHT22;13143;50.924;5.320;2023-06-10T07:42:37;23.80;86.80
25192;DHT22;13143;50.924;5.320;2023-06-10T07:45:04;23.90;86.90
25192;DHT22;13143;50.924;5.320;2023-06-10T07:47:32;23.90;86.90
25192;DHT22;13143;50.924;5.320;2023-06-10T07:49:59;23.90;86.70
25192;DHT22;13143;50.924;5.320;2023-06-10T07:52:25;24.00;86.70
25192;DHT22;13143;50.924;5.320;2023-06-10T07:54:52;24.00;86.70
25192;DHT22;13143;50.924;5.320;2023-06-10T07:57:19;24.00;86.90
25192;DHT22;13143;50.924;5.320;2023-06-10T07:59:45;24.10;86.50
25192;DHT22;13143;50.924;5.320;2023-06-10T08:02:11;24.20;86.20
25192;DHT22;13143;50.924;5.320;2023-06-10T08:04:37;24.10;86.90
25192;DHT22;13143;50.924;5.320;2023-06-10T08:07:04;24.20;86.20
25192;DHT22;13143;50.924;5.320;2023-06-10T08:09:30;24.20;86.20
25192;DHT22;13143;50.924;5.320;2023-06-10T08:11:56;24.20;86.10
25192;DHT22;13143;50.924;5.320;2023-06-10T08:14:22;24.30;86.30
25192;DHT22;13143;50.924;5.320;2023-06-10T08:16:48;24.30;86.50
25192;DHT22;13143;50.924;5.320;2023-06-10T08:19:15;24.30;86.50
25192;DHT22;13143;50.924;5.320;2023-06-10T08:21:41;24.40;86.30
25192;DHT22;13143;50.924;5.320;2023-06-10T08:24:07;24.40;86.00
25192;DHT22;13143;50.924;5.320;2023-06-10T08:26:33;24.40;85.80
25192;DHT22;13143;50.924;5.320;2023-06-10T08:28:59;24.50;85.60
25192;DHT22;13143;50.924;5.320;2023-06-10T08:31:25;24.60;85.50
25192;DHT22;13143;50.924;5.320;2023-06-10T08:33:51;24.60;85.50
25192;DHT22;13143;50.924;5.320;2023-06-10T08:36:18;24.60;85.30
25192;DHT22;13143;50.924;5.320;2023-06-10T08:38:44;24.70;85.40
25192;DHT22;13143;50.924;5.320;2023-06-10T08:41:12;24.70;85.60
25192;DHT22;13143;50.924;5.320;2023-06-10T08:43:45;24.80;84.70
25192;DHT22;13143;50.924;5.320;2023-06-10T08:46:12;24.80;84.70
25192;DHT22;13143;50.924;5.320;2023-06-10T08:48:42;24.90;84.80
25192;DHT22;13143;50.924;5.320;2023-06-10T08:51:10;24.90;84.80
25192;DHT22;13143;50.924;5.320;2023-06-10T08:53:42;24.90;84.80
25192;DHT22;13143;50.924;5.320;2023-06-10T08:56:12;24.90;84.80
25192;DHT22;13143;50.924;5.320;2023-06-10T08:58:39;25.00;84.80
25192;DHT22;13143;50.924;5.320;2023-06-10T09:01:10;25.00;84.80
25192;DHT22;13143;50.924;5.320;2023-06-10T09:03:38;25.10;84.20
25192;DHT22;13143;50.924;5.320;2023-06-10T09:06:07;25.20;83.40
25192;DHT22;13143;50.924;5.320;2023-06-10T09:08:34;25.20;83.30
25192;DHT22;13143;50.924;5.320;2023-06-10T09:11:03;25.20;83.30
25192;DHT22;13143;50.924;5.320;2023-06-10T09:13:29;25.20;83.10
25192;DHT22;13143;50.924;5.320;2023-06-10T09:15:55;25.30;82.90
25192;DHT22;13143;50.924;5.320;2023-06-10T09:18:26;25.30;82.60
25192;DHT22;13143;50.924;5.320;2023-06-10T09:20:53;25.40;82.10
25192;DHT22;13143;50.924;5.320;2023-06-10T09:23:19;25.40;82.10
25192;DHT22;13143;50.924;5.320;2023-06-10T09:25:45;25.40;81.90
25192;DHT22;13143;50.924;5.320;2023-06-10T09:28:15;25.40;82.10
25192;DHT22;13143;50.924;5.320;2023-06-10T09:30:41;25.50;82.50
25192;DHT22;13143;50.924;5.320;2023-06-10T09:33:13;25.50;81.90
25192;DHT22;13143;50.924;5.320;2023-06-10T09:35:46;25.60;80.30
25192;DHT22;13143;50.924;5.320;2023-06-10T09:38:14;25.70;78.60
25192;DHT22;13143;50.924;5.320;2023-06-10T09:40:54;25.70;78.70
25192;DHT22;13143;50.924;5.320;2023-06-10T09:43:21;25.70;79.10
25192;DHT22;13143;50.924;5.320;2023-06-10T09:45:50;25.70;79.00
25192;DHT22;13143;50.924;5.320;2023-06-10T09:48:19;25.70;77.90
25192;DHT22;13143;50.924;5.320;2023-06-10T09:50:46;25.80;76.80
25192;DHT22;13143;50.924;5.320;2023-06-10T09:53:12;25.90;75.00
25192;DHT22;13143;50.924;5.320;2023-06-10T09:55:39;25.90;75.00
25192;DHT22;13143;50.924;5.320;2023-06-10T09:58:06;25.90;75.40
25192;DHT22;13143;50.924;5.320;2023-06-10T10:00:33;26.00;75.60
25192;DHT22;13143;50.924;5.320;2023-06-10T10:02:59;26.00;75.90
25192;DHT22;13143;50.924;5.320;2023-06-10T10:05:27;26.10;75.60
25192;DHT22;13143;50.924;5.320;2023-06-10T10:07:53;26.20;74.30
25192;DHT22;13143;50.924;5.320;2023-06-10T10:10:22;26.20;74.30
25192;DHT22;13143;50.924;5.320;2023-06-10T10:12:52;26.20;74.00
25192;DHT22;13143;50.924;5.320;2023-06-10T10:15:20;26.20;73.60
25192;DHT22;13143;50.924;5.320;2023-06-10T10:18:08;26.30;72.50
25192;DHT22;13143;50.924;5.320;2023-06-10T10:20:39;26.40;71.60
25192;DHT22;13143;50.924;5.320;2023-06-10T10:23:08;26.40;71.40
25192;DHT22;13143;50.924;5.320;2023-06-10T10:25:38;26.40;71.90
25192;DHT22;13143;50.924;5.320;2023-06-10T10:28:11;26.50;71.00
25192;DHT22;13143;50.924;5.320;2023-06-10T10:30:43;26.50;71.40
25192;DHT22;13143;50.924;5.320;2023-06-10T10:33:18;26.50;70.70
25192;DHT22;13143;50.924;5.320;2023-06-10T10:35:46;26.60;69.90
25192;DHT22;13143;50.924;5.320;2023-06-10T10:38:12;26.70;69.70
25192;DHT22;13143;50.924;5.320;2023-06-10T10:40:39;26.70;70.10
25192;DHT22;13143;50.924;5.320;2023-06-10T10:43:06;26.70;69.70
25192;DHT22;13143;50.924;5.320;2023-06-10T10:45:33;26.70;68.10
25192;DHT22;13143;50.924;5.320;2023-06-10T10:48:08;26.80;68.60
25192;DHT22;13143;50.924;5.320;2023-06-10T10:50:39;26.80;68.20
25192;DHT22;13143;50.924;5.320;2023-06-10T10:53:06;26.90;67.30
25192;DHT22;13143;50.924;5.320;2023-06-10T10:55:33;26.90;67.10
25192;DHT22;13143;50.924;5.320;2023-06-10T10:58:06;26.90;67.50
25192;DHT22;13143;50.924;5.320;2023-06-10T11:00:33;26.90;67.50
25192;DHT22;13143;50.924;5.320;2023-06-10T11:03:13;27.00;66.40
25192;DHT22;13143;50.924;5.320;2023-06-10T11:05:41;27.00;64.70
25192;DHT22;13143;50.924;5.320;2023-06-10T11:08:11;27.10;65.20
25192;DHT22;13143;50.924;5.320;2023-06-10T11:10:41;27.10;65.00
25192;DHT22;13143;50.924;5.320;2023-06-10T11:13:19;27.10;64.70
25192;DHT22;13143;50.924;5.320;2023-06-10T11:15:50;27.20;64.40
25192;DHT22;13143;50.924;5.320;2023-06-10T11:18:23;27.20;63.90
25192;DHT22;13143;50.924;5.320;2023-06-10T11:21:03;27.20;63.80
25192;DHT22;13143;50.924;5.320;2023-06-10T11:34:00;27.40;63.50
25192;DHT22;13143;50.924;5.320;2023-06-10T11:36:28;27.40;63.20
25192;DHT22;13143;50.924;5.320;2023-06-10T11:39:04;27.50;62.50
25192;DHT22;13143;50.924;5.320;2023-06-10T11:41:32;27.50;62.30
25192;DHT22;13143;50.924;5.320;2023-06-10T11:44:10;27.50;62.10
25192;DHT22;13143;50.924;5.320;2023-06-10T11:46:36;27.50;61.20
25192;DHT22;13143;50.924;5.320;2023-06-10T11:49:04;27.60;60.70
25192;DHT22;13143;50.924;5.320;2023-06-10T11:51:41;27.60;60.80
25192;DHT22;13143;50.924;5.320;2023-06-10T11:54:15;27.60;60.10
25192;DHT22;13143;50.924;5.320;2023-06-10T11:56:42;27.60;59.30
25192;DHT22;13143;50.924;5.320;2023-06-10T11:59:08;27.70;59.40
25192;DHT22;13143;50.924;5.320;2023-06-10T12:01:36;27.70;59.10
25192;DHT22;13143;50.924;5.320;2023-06-10T12:04:03;27.70;57.20
25192;DHT22;13143;50.924;5.320;2023-06-10T12:06:43;27.80;57.30
25192;DHT22;13143;50.924;5.320;2023-06-10T12:09:20;27.90;57.40
25192;DHT22;13143;50.924;5.320;2023-06-10T12:12:01;27.90;58.60
25192;DHT22;13143;50.924;5.320;2023-06-10T12:20:00;27.90;56.70
25192;DHT22;13143;50.924;5.320;2023-06-10T12:22:27;27.90;56.40
25192;DHT22;13143;50.924;5.320;2023-06-10T12:25:03;27.90;56.70
25192;DHT22;13143;50.924;5.320;2023-06-10T12:27:30;28.00;57.00
25192;DHT22;13143;50.924;5.320;2023-06-10T12:29:58;28.00;56.00
25192;DHT22;13143;50.924;5.320;2023-06-10T12:32:43;28.00;56.70
25192;DHT22;13143;50.924;5.320;2023-06-10T12:35:12;28.10;56.60
25192;DHT22;13143;50.924;5.320;2023-06-10T12:37:39;28.10;56.60
25192;DHT22;13143;50.924;5.320;2023-06-10T12:40:06;28.10;57.00
25192;DHT22;13143;50.924;5.320;2023-06-10T12:42:35;28.10;56.40
25192;DHT22;13143;50.924;5.320;2023-06-10T12:45:03;28.10;56.90
25192;DHT22;13143;50.924;5.320;2023-06-10T12:47:37;28.20;56.40
25192;DHT22;13143;50.924;5.320;2023-06-10T12:50:07;28.20;56.70
25192;DHT22;13143;50.924;5.320;2023-06-10T12:52:34;28.20;55.50
25192;DHT22;13143;50.924;5.320;2023-06-10T12:55:01;28.30;54.90
25192;DHT22;13143;50.924;5.320;2023-06-10T12:57:28;28.30;55.60
25192;DHT22;13143;50.924;5.320;2023-06-10T12:59:54;28.30;56.30
25192;DHT22;13143;50.924;5.320;2023-06-10T13:02:23;28.30;56.20
25192;DHT22;13143;50.924;5.320;2023-06-10T13:04:50;28.30;57.00
25192;DHT22;13143;50.924;5.320;2023-06-10T13:07:17;28.30;57.40
25192;DHT22;13143;50.924;5.320;2023-06-10T13:09:43;28.30;57.40
25192;DHT22;13143;50.924;5.320;2023-06-10T13:12:10;28.30;57.10
25192;DHT22;13143;50.924;5.320;2023-06-10T13:14:37;28.40;56.40
25192;DHT22;13143;50.924;5.320;2023-06-10T13:17:04;28.40;55.70
25192;DHT22;13143;50.924;5.320;2023-06-10T13:19:35;28.40;56.00
25192;DHT22;13143;50.924;5.320;2023-06-10T13:22:01;28.40;56.20
25192;DHT22;13143;50.924;5.320;2023-06-10T13:24:27;28.50;56.80
25192;DHT22;13143;50.924;5.320;2023-06-10T13:26:53;28.50;55.90
25192;DHT22;13143;50.924;5.320;2023-06-10T13:29:20;28.60;54.60
25192;DHT22;13143;50.924;5.320;2023-06-10T13:31:46;28.60;54.50
25192;DHT22;13143;50.924;5.320;2023-06-10T13:34:13;28.60;55.20
25192;DHT22;13143;50.924;5.320;2023-06-10T13:36:39;28.60;55.80
25192;DHT22;13143;50.924;5.320;2023-06-10T13:39:05;28.60;55.50
25192;DHT22;13143;50.924;5.320;2023-06-10T13:41:31;28.60;55.60
25192;DHT22;13143;50.924;5.320;2023-06-10T13:43:57;28.60;55.30
25192;DHT22;13143;50.924;5.320;2023-06-10T13:46:23;28.60;55.10
25192;DHT22;13143;50.924;5.320;2023-06-10T13:48:50;28.70;55.40
25192;DHT22;13143;50.924;5.320;2023-06-10T13:51:16;28.70;56.10
25192;DHT22;13143;50.924;5.320;2023-06-10T13:53:42;28.70;56.20
25192;DHT22;13143;50.924;5.320;2023-06-10T13:56:08;28.70;56.00
25192;DHT22;13143;50.924;5.320;2023-06-10T13:58:34;28.70;56.30
25192;DHT22;13143;50.924;5.320;2023-06-10T14:01:05;28.80;55.30
25192;DHT22;13143;50.924;5.320;2023-06-10T14:03:31;28.80;55.00
25192;DHT22;13143;50.924;5.320;2023-06-10T14:05:57;28.80;55.20
25192;DHT22;13143;50.924;5.320;2023-06-10T14:08:24;28.80;55.20
25192;DHT22;13143;50.924;5.320;2023-06-10T14:10:50;28.90;54.10
25192;DHT22;13143;50.924;5.320;2023-06-10T14:13:19;28.90;52.40
25192;DHT22;13143;50.924;5.320;2023-06-10T14:15:45;28.90;51.60
25192;DHT22;13143;50.924;5.320;2023-06-10T14:18:12;28.90;51.60
25192;DHT22;13143;50.924;5.320;2023-06-10T14:20:38;28.90;52.20
25192;DHT22;13143;50.924;5.320;2023-06-10T14:23:04;28.90;52.50
25192;DHT22;13143;50.924;5.320;2023-06-10T14:25:30;28.90;52.60
25192;DHT22;13143;50.924;5.320;2023-06-10T14:27:56;28.90;53.20
25192;DHT22;13143;50.924;5.320;2023-06-10T14:30:23;29.00;52.80
25192;DHT22;13143;50.924;5.320;2023-06-10T14:32:50;29.00;51.80
25192;DHT22;13143;50.924;5.320;2023-06-10T14:35:16;29.00;52.80
25192;DHT22;13143;50.924;5.320;2023-06-10T14:37:42;29.10;53.40
25192;DHT22;13143;50.924;5.320;2023-06-10T14:40:08;29.00;53.30
25192;DHT22;13143;50.924;5.320;2023-06-10T14:42:35;29.10;53.60
25192;DHT22;13143;50.924;5.320;2023-06-10T14:45:01;29.10;53.40
25192;DHT22;13143;50.924;5.320;2023-06-10T14:47:27;29.10;53.60
25192;DHT22;13143;50.924;5.320;2023-06-10T14:49:53;29.10;53.90
25192;DHT22;13143;50.924;5.320;2023-06-10T14:52:19;29.10;53.70
25192;DHT22;13143;50.924;5.320;2023-06-10T14:54:46;29.20;53.80
25192;DHT22;13143;50.924;5.320;2023-06-10T14:57:12;29.20;53.40
25192;DHT22;13143;50.924;5.320;2023-06-10T14:59:38;29.20;53.40
25192;DHT22;13143;50.924;5.320;2023-06-10T15:02:04;29.20;53.30
25192;DHT22;13143;50.924;5.320;2023-06-10T15:04:31;29.20;53.20
25192;DHT22;13143;50.924;5.320;2023-06-10T15:06:57;29.30;53.80
25192;DHT22;13143;50.924;5.320;2023-06-10T15:09:23;29.30;52.40
25192;DHT22;13143;50.924;5.320;2023-06-10T15:11:49;29.40;52.80
25192;DHT22;13143;50.924;5.320;2023-06-10T15:14:16;29.40;51.80
25192;DHT22;13143;50.924;5.320;2023-06-10T15:16:42;29.40;52.20
25192;DHT22;13143;50.924;5.320;2023-06-10T15:19:08;29.50;52.30
25192;DHT22;13143;50.924;5.320;2023-06-10T15:21:35;29.40;53.30
25192;DHT22;13143;50.924;5.320;2023-06-10T15:24:02;29.50;54.20
25192;DHT22;13143;50.924;5.320;2023-06-10T15:26:28;29.50;55.30
25192;DHT22;13143;50.924;5.320;2023-06-10T15:28:55;29.60;54.70
25192;DHT22;13143;50.924;5.320;2023-06-10T15:31:21;29.60;54.60
25192;DHT22;13143;50.924;5.320;2023-06-10T15:33:47;29.60;55.50
25192;DHT22;13143;50.924;5.320;2023-06-10T15:36:13;29.60;55.00
25192;DHT22;13143;50.924;5.320;2023-06-10T15:38:40;29.60;55.00
25192;DHT22;13143;50.924;5.320;2023-06-10T15:41:06;29.60;54.30
25192;DHT22;13143;50.924;5.320;2023-06-10T15:43:32;29.60;54.20
25192;DHT22;13143;50.924;5.320;2023-06-10T15:45:58;29.70;54.60
25192;DHT22;13143;50.924;5.320;2023-06-10T15:48:24;29.70;54.60
25192;DHT22;13143;50.924;5.320;2023-06-10T15:50:50;29.70;54.70